메인 페이지
METAR-TAF:

METAR-TAF

공항 :

우아리 부메디엔 공항

알제, 알제리

위도: 36-43N, 경도: 003-15E, 고도: 25m

현재 날씨관측

예보는 38분 전, 23:30시(UTC)에 발표되었습니다.
3kt
온도 13°C
습도 94%
기압 1016 hPa
시정 10km 이상
고도 2300ft 상공 구름 조금

METAR: DAAG 242330Z 19003KT 9999 FEW023 13/12 Q1016

시각: 01:08 (00:08 UTC)

예보

예보는 1 시간 8분 전, 23:00시(UTC)에 발표되었습니다.
예보 대상 시간: 25일 00시부터 25일 24시까지 (UTC)
여러 방향의 바람 2kt
시정 10km 이상
고도 2300ft 상공 구름 조금
고도 4000ft 상공 구름 보통
전환 중
25일 04시부터 25일 07시까지 (UTC)
서북서12kt
확률 30% :
일시적
25일 06시부터 25일 17시까지 (UTC)
15kt, 순간 최대 풍속 25kt
고도 2300ft 상공 구름 조금, 타워링 적운.

TAF: DAAG 242300Z 2500/2524 VRB02KT 9999 FEW023 SCT040 BECMG 2504/2507 30012KT PROB30 TEMPO 2506/2517 28015G25KT FEW023TCU

4,000개 이상의 공항 관측 자료 및 예보 (METAR 및 TAF 보고).

지도상에서 검색 가능한 기상관측소가 노란 점과 빨간 점으로 표시되어 있습니다.

기상관측소 명을 보려면 표시 위로 마우스를 이동하세요.

날씨 관측과 예보를 보려면 클릭하세요.

지도 변경 : 확대하려면 엑스 표시가 있는 녹색 버튼, 축소하려면 빼기 표시가 있는 녹색 버튼, 다음 페이지의 지도를 보려면 녹색 화살표를 클릭하세요.


METAR-TAF: